Flight Track Log - Related Links

Times and Time Zones

All times are in EDT time to prevent confusion due to time zone crossing. See the SWA121 flight status page for this flight to view local times or setup timezone preferences in your user account.

Time Position Orientation Groundspeed Altitude Reporting Facility
EDT Latitude Longitude Course Direction KTS MPH feet Rate Location/Type
Sun 09:45:32 PM 39.4826 -104.5581 347° North  Level FlightAware Approximate
Sun 09:46:32 PM 39.3760 -104.5213 346° North  Level FlightAware Approximate
Sun 09:47:32 PM 39.2681 -104.4920 347° North  Level FlightAware Approximate
Sun 09:48:32 PM 39.1606 -104.4591 347° North  Level FlightAware Approximate
Sun 09:49:32 PM 39.0517 -104.4364 347° North  Level FlightAware Approximate
Sun 09:50:32 PM 38.9451 -104.4002 347° North  Level FlightAware Approximate
Sun 09:51:32 PM 38.8389 -104.4000 349° North  Level FlightAware Approximate
Sun 09:52:32 PM 38.7285 -104.4000 350° North  Level FlightAware Approximate
Sun 09:53:32 PM 38.6180 -104.4000 351° North  Level FlightAware Approximate
Sun 09:54:01 PM 39.7833 -104.6500 174° South 233 268 7,300  Level Denver TRACON
Sun 09:58:13 PM 39.3994 -104.5972 173° South 372 428 16,700 2,064 Climbing Denver Center
Sun 09:59:15 PM 39.2964 -104.5808 173° South 373 429 18,100 1,632 Climbing Denver Center
Sun 10:00:18 PM 39.1753 -104.5628 173° South 400 460 20,100 1,824 Climbing Denver Center
Sun 10:01:20 PM 39.0672 -104.5458 181° South 408 470 21,900 1,680 Climbing Denver Center
Sun 10:02:23 PM 38.9514 -104.5483 186° South 418 481 23,600 1,714 Climbing Denver Center
Sun 10:03:26 PM 38.8344 -104.5653 185° South 407 468 25,500 1,632 Climbing Denver Center
Sun 10:04:28 PM 38.7019 -104.5811 186° South 413 475 27,000 1,248 Climbing Denver Center
Sun 10:05:31 PM 38.5833 -104.5967 186° South 422 486 28,100 1,488 Climbing Denver Center
Sun 10:06:33 PM 38.4650 -104.6125 186° South 423 487 30,100 1,728 Climbing Denver Center
Sun 10:07:36 PM 38.3536 -104.6275 186° South 406 467 31,700 1,200 Climbing Denver Center
Sun 10:08:38 PM 38.2344 -104.6433 186° South 399 459 32,600 624 Climbing Denver Center
Sun 10:09:41 PM 38.1097 -104.6603 187° South 402 463 33,000 192 Climbing Denver Center
Sun 10:10:43 PM 38.0050 -104.6761 170° South 399 459 33,000  Level Denver Center
Sun 10:11:46 PM 37.8850 -104.6492 149° Southeast 408 470 33,000  Level Denver Center
Sun 10:12:48 PM 37.7925 -104.5778 150° Southeast 410 472 33,000  Level Denver Center
Sun 10:13:50 PM 37.6822 -104.4981 150° Southeast 410 472 33,000  Level Denver Center
Sun 10:14:53 PM 37.5878 -104.4292 150° Southeast 411 473 33,000  Level Denver Center
Sun 10:15:55 PM 37.4767 -104.3475 150° Southeast 415 478 33,000  Level Denver Center
Sun 10:16:58 PM 37.3814 -104.2769 150° Southeast 418 481 33,000  Level Denver Center
Sun 10:18:00 PM 37.2706 -104.1958 150° Southeast 417 480 33,000  Level Denver Center
Sun 10:19:03 PM 37.1592 -104.1147 150° Southeast 417 480 33,000  Level Denver Center
Sun 10:20:05 PM 37.0631 -104.0442 137° Southeast 419 482 33,000  Level Denver Center
Sun 10:21:07 PM 36.9672 -103.9339 124° Southeast 434 499 33,000 48 Level Denver Center
Sun 10:22:10 PM 36.9036 -103.8142 134° Southeast 437 503 33,100  Climbing Denver Center
Sun 10:23:09 PM 36.8225 -103.7106 138° Southeast 433 498 33,000 -50 Descending Albuquerque Center
Sun 10:24:09 PM 36.7231 -103.5986 140° Southeast 433 498 33,000  Level Albuquerque Center
Sun 10:25:09 PM 36.6303 -103.5022 139° Southeast 439 505 33,000  Level Albuquerque Center
Sun 10:26:09 PM 36.5372 -103.4008 125° Southeast 439 505 33,000  Level Albuquerque Center
Sun 10:27:09 PM 36.4664 -103.2753 122° Southeast 439 505 33,000  Level Albuquerque Center
Sun 10:28:09 PM 36.3992 -103.1394 124° Southeast 444 511 33,000  Level Albuquerque Center
Sun 10:29:09 PM 36.3297 -103.0117 122° Southeast 449 517 33,000  Level Albuquerque Center
Sun 10:30:09 PM 36.2692 -102.8914 124° Southeast 454 522 33,000  Level Albuquerque Center
Sun 10:31:09 PM 36.1975 -102.7617 122° Southeast 449 517 33,000 400 Level Albuquerque Center
Sun 10:32:09 PM 36.1297 -102.6292 123° Southeast 449 517 33,800 850 Climbing Albuquerque Center
Sun 10:33:09 PM 36.0617 -102.4972 122° Southeast 449 517 34,700 600 Climbing Albuquerque Center
Sun 10:34:09 PM 35.9936 -102.3653 123° Southeast 449 517 35,000 150 Climbing Albuquerque Center
Sun 10:35:09 PM 35.9256 -102.2361 123° Southeast 449 517 35,000  Level Albuquerque Center
Sun 10:36:09 PM 35.8553 -102.1022 123° Southeast 455 524 35,000  Level Albuquerque Center
Sun 10:37:09 PM 35.7844 -101.9686 123° Southeast 455 524 35,000  Level Albuquerque Center
Sun 10:38:09 PM 35.7161 -101.8403 123° Southeast 461 531 35,000  Level Albuquerque Center
Sun 10:39:09 PM 35.6453 -101.7072 124° Southeast 461 531 35,000  Level Albuquerque Center
Sun 10:40:09 PM 35.5742 -101.5769 122° Southeast 461 531 35,000  Level Albuquerque Center
Sun 10:41:09 PM 35.5072 -101.4439 125° Southeast 461 531 35,000  Level Albuquerque Center
Sun 10:42:09 PM 35.4250 -101.2994 124° Southeast 463 533 35,000  Level Albuquerque Center
Sun 10:43:09 PM 35.3533 -101.1675 123° Southeast 463 533 35,000  Level Albuquerque Center
Sun 10:44:09 PM 35.2839 -101.0353 124° Southeast 463 533 35,000  Level Albuquerque Center
Sun 10:45:09 PM 35.2103 -100.9039 128° Southeast 463 533 35,000  Level Albuquerque Center
Sun 10:47:16 PM 35.0392 -100.6392 136° Southeast 473 544 35,000  Level Fort Worth Center
Sun 10:48:16 PM 34.9461 -100.5292 135° Southeast 468 539 35,000  Level Fort Worth Center
Sun 10:49:16 PM 34.8731 -100.4403 135° Southeast 468 539 35,000  Level Fort Worth Center
Sun 10:50:16 PM 34.7594 -100.3025 136° Southeast 473 544 35,000  Level Fort Worth Center
Sun 10:51:16 PM 34.6642 -100.1906 136° Southeast 473 544 35,000  Level Fort Worth Center
Sun 10:52:16 PM 34.5767 -100.0869 136° Southeast 473 544 35,000  Level Fort Worth Center
Sun 10:53:16 PM 34.4808 -99.9731 136° Southeast 473 544 35,000  Level Fort Worth Center
Sun 10:54:16 PM 34.3853 -99.8594 135° Southeast 478 550 35,000  Level Fort Worth Center
Sun 10:55:16 PM 34.2892 -99.7436 136° Southeast 478 550 35,000  Level Fort Worth Center
Sun 10:56:16 PM 34.1933 -99.6306 136° Southeast 478 550 35,000  Level Fort Worth Center
Sun 10:57:16 PM 34.0950 -99.5153 136° Southeast 478 550 35,000  Level Fort Worth Center
Sun 10:58:16 PM 33.9989 -99.4028 137° Southeast 478 550 35,000  Level Fort Worth Center
Sun 10:59:16 PM 33.9025 -99.2953 135° Southeast 478 550 35,000  Level Fort Worth Center
Sun 11:00:16 PM 33.8039 -99.1783 138° Southeast 478 550 35,000  Level Fort Worth Center
Sun 11:01:16 PM 33.6931 -99.0586 136° Southeast 483 556 35,000  Level Fort Worth Center
Sun 11:02:16 PM 33.5942 -98.9444 134° Southeast 489 563 35,000  Level Fort Worth Center
Sun 11:03:16 PM 33.5078 -98.8383 136° Southeast 489 563 35,000  Level Fort Worth Center
Sun 11:04:16 PM 33.3986 -98.7122 137° Southeast 489 563 35,000  Level Fort Worth Center
Sun 11:05:16 PM 33.2994 -98.6014 136° Southeast 494 568 35,000  Level Fort Worth Center
Sun 11:06:16 PM 33.2003 -98.4883 138° Southeast 494 568 35,000  Level Fort Worth Center
Sun 11:07:16 PM 33.1008 -98.3806 136° Southeast 489 563 35,000  Level Fort Worth Center
Sun 11:08:16 PM 33.0036 -98.2706 136° Southeast 484 557 35,000  Level Fort Worth Center
Sun 11:09:16 PM 32.9042 -98.1581 137° Southeast 484 557 35,000  Level Fort Worth Center
Sun 11:10:16 PM 32.8047 -98.0486 136° Southeast 491 565 35,000  Level Fort Worth Center
Sun 11:11:16 PM 32.7175 -97.9492 137° Southeast 483 556 35,000  Level Fort Worth Center
Sun 11:12:16 PM 32.6197 -97.8400 137° Southeast 483 556 35,000  Level Fort Worth Center
Sun 11:13:16 PM 32.5197 -97.7311 142° Southeast 483 556 35,000  Level Fort Worth Center
Sun 11:14:16 PM 32.4197 -97.6372 148° Southeast 473 544 35,000  Level Fort Worth Center
Sun 11:15:28 PM 32.2758 -97.5314 148° Southeast 467 537 35,000  Level Fort Worth Center
Sun 11:16:28 PM 32.1758 -97.4575 149° Southeast 467 537 35,000  Level Fort Worth Center
Sun 11:17:28 PM 32.0672 -97.3814 147° Southeast 467 537 35,000  Level Fort Worth Center
Sun 11:18:28 PM 31.9503 -97.2933 148° Southeast 461 531 35,000  Level Fort Worth Center
Sun 11:19:28 PM 31.8394 -97.2128 149° Southeast 461 531 35,000  Level Fort Worth Center
Sun 11:21:01 PM 31.6681 -97.0931 148° Southeast 443 510 35,000  Level Houston Center
Sun 11:22:00 PM 31.5586 -97.0142 150° Southeast 459 528 35,000  Level Houston Center
Sun 11:23:00 PM 31.4469 -96.9375 148° Southeast 459 528 35,000  Level Houston Center
Sun 11:24:00 PM 31.3375 -96.8564 153° Southeast 459 528 35,000 -50 Level Houston Center
Sun 11:25:01 PM 31.2233 -96.7872 154° Southeast 459 528 34,900 -1,686 Descending Houston Center
Sun 11:26:01 PM 31.1050 -96.7206 153° Southeast 464 534 31,600 -2,924 Descending Houston Center
Sun 11:27:00 PM 31.0008 -96.6597 153° Southeast 469 540 29,100 -2,571 Descending Houston Center
Sun 11:28:00 PM 30.8886 -96.5936 154° Southeast 463 533 26,500 -2,500 Descending Houston Center
Sun 11:29:00 PM 30.7783 -96.5303 155° Southeast 451 519 24,100 -2,500 Descending Houston Center
Sun 11:30:00 PM 30.6617 -96.4667 153° Southeast 451 519 21,500 -2,600 Descending Houston Center
Sun 11:31:00 PM 30.5411 -96.3958 154° Southeast 452 520 18,900 -2,500 Descending Houston Center
Sun 11:32:00 PM 30.4347 -96.3356 154° Southeast 442 509 16,500 -2,479 Descending Houston Center
Sun 11:33:01 PM 30.3283 -96.2753 155° Southeast 434 499 13,900 -2,550 Descending Houston Center
Sun 11:34:00 PM 30.2258 -96.2203 148° Southeast 415 478 11,400 -1,871 Descending Houston Center
Sun 11:34:34 PM 30.1728 -96.1819 139° Southeast 375 432 11,000 -270 Descending Houston Center
Sun 11:35:29 PM 30.1022 -96.1117 137° Southeast 371 427 11,000 -70 Level Houston Center
Sun 11:36:00 PM 30.0719 -96.0792 139° Southeast 376 433 10,900  Descending Houston Center
Sun 11:36:30 PM 30.0253 -96.0317 139° Southeast 371 427 11,000 100 Climbing Houston Center
Sun 11:37:00 PM 29.9950 -96.0014 140° Southeast 376 433 11,000  Level Houston Center
Sun 11:37:31 PM 29.9464 -95.9539 139° Southeast 369 425 11,000 -264 Level Houston Center
Sun 11:38:31 PM 29.8756 -95.8839 139° Southeast 303 349 10,600 -1,041 Descending Houston Center
Sun 11:39:32 PM 29.8108 -95.8192 129° Southeast 301 346 8,900 -1,574 Descending Houston Center
Sun 11:40:33 PM 29.7608 -95.7478 123° Southeast 286 329 7,400 -1,475 Descending Houston Center
Sun 11:41:34 PM 29.7172 -95.6719 124° Southeast 283 326 5,900 -1,465 Descending Houston Center
Sun 11:42:40 PM 29.6694 -95.5911 124° Southeast 275 316 4,300 -1,417 Descending Houston Center
Sun 11:43:41 PM 29.6256 -95.5153 126° Southeast 272 313 2,900 -678 Descending Houston Center
Sun 11:44:35 PM 29.5936 -95.4639 107° East 220 253 3,000 -470 Climbing Houston Center
Sun 11:45:36 PM 29.5786 -95.4061 81° East 181 208 2,000 -787 Descending Houston Center
Sun 11:46:37 PM 29.5864 -95.3514 49° Northeast 150 173 1,400 -645 Descending Houston Center
Sun 11:47:37 PM 29.6125 -95.3167 45° Northeast 141 162 700 -700 Descending Houston Center
Sun 11:55:32 PM 30.2994 -94.5206 45° Northeast  Level Estimated

Login

Don't have an account? Register now (free) for customized features, flight alerts, and more!